NAS weather

Lynden Pindling International Airport
Nassau, New Providence, Bahamas

Public forecast

Using degrees Celsius for public forecast. Weather courtesy of forecast.io.

METAR (pilot weather report)

Retrieved 2019/04/25 11:00 UTC (57 minutes ago):

MYNN 251100Z 12006KT 9999 FEW030 SCT200 23/19 A3002

TAF (pilot weather forecast)

Retrieved 2019/04/25 06:23 UTC (6 hours ago):

TAF MYNN 250445Z 2506/2606 11006KT 9999 SCT015 BKN250 PROB30 TEMPO 2518/2600 12014KT 8000 SHRA BKN015 BKN035